Time;durP1;ratioP1;P1;durP2;ratioP2;P2;SDS_P1;SDS_P2;PMS_P1;PMS_P2;Temp;Humidity;BMP_temperature;BMP_pressure;BME280_temperature;BME280_humidity;BME280_pressure;Samples;Min_cycle;Max_cycle;Signal;HPM_P1;HPM_P2
2023/08/27 00:01:08;;;;;;;21.80;11.27;;;13.60;99.90;;;;;;5053578;28;20131;-75
2023/08/27 00:03:33;;;;;;;23.75;12.88;;;13.60;99.90;;;;;;5036630;28;20048;-75
2023/08/27 00:05:59;;;;;;;23.92;12.23;;;13.60;99.90;;;;;;5053459;28;20049;-80
2023/08/27 00:08:25;;;;;;;23.77;12.20;;;13.60;99.90;;;;;;5052298;28;20156;-75
2023/08/27 00:10:55;;;;;;;22.65;12.30;;;13.60;99.90;;;;;;5035590;28;20045;-75
2023/08/27 00:13:21;;;;;;;23.25;12.38;;;13.60;99.90;;;;;;5053928;28;20052;-75
2023/08/27 00:15:47;;;;;;;25.38;13.18;;;13.50;99.90;;;;;;5052174;28;20048;-75
2023/08/27 00:18:13;;;;;;;24.00;13.18;;;13.50;99.90;;;;;;5053860;28;20099;-76
2023/08/27 00:20:41;;;;;;;29.35;14.27;;;13.50;99.90;;;;;;5053067;28;20426;-76
2023/08/27 00:23:08;;;;;;;22.90;13.07;;;13.50;99.90;;;;;;5053335;28;20092;-74
2023/08/27 00:25:34;;;;;;;;;;;13.50;99.90;;;;;;5053307;28;20049;-75
2023/08/27 00:28:00;;;;;;;34.05;18.05;;;13.50;99.90;;;;;;5085637;28;19921;-75
2023/08/27 00:30:25;;;;;;;37.03;21.17;;;13.50;99.90;;;;;;5053851;28;20052;-75
2023/08/27 00:32:51;;;;;;;38.47;21.90;;;13.40;99.90;;;;;;5053534;28;20041;-75
2023/08/27 00:35:17;;;;;;;34.38;19.83;;;13.40;99.90;;;;;;5052107;28;20048;-75
2023/08/27 00:37:42;;;;;;;33.55;19.45;;;13.40;99.90;;;;;;5051978;28;20393;-75
2023/08/27 00:40:08;;;;;;;34.22;18.15;;;13.40;99.90;;;;;;5052133;28;20045;-75
2023/08/27 00:42:34;;;;;;;30.60;17.70;;;13.50;99.90;;;;;;5053058;28;20056;-75
2023/08/27 00:45:00;;;;;;;29.85;16.10;;;13.50;99.90;;;;;;5052823;28;20362;-74
2023/08/27 00:47:27;;;;;;;27.70;16.33;;;13.50;99.90;;;;;;5051965;28;20041;-75
2023/08/27 00:49:52;;;;;;;;;;;13.60;99.90;;;;;;5053293;28;20045;-75
2023/08/27 00:52:20;;;;;;;28.80;15.33;;;13.60;99.90;;;;;;5052951;28;19928;-74
2023/08/27 00:54:46;;;;;;;28.73;14.95;;;13.70;99.90;;;;;;5052945;28;20111;-75
2023/08/27 00:57:12;;;;;;;28.75;14.93;;;13.70;99.90;;;;;;5051810;28;20088;-75
2023/08/27 00:59:38;;;;;;;27.08;14.25;;;13.70;99.90;;;;;;5051750;28;20041;-75
2023/08/27 01:02:04;;;;;;;27.05;14.50;;;13.70;99.90;;;;;;5051616;28;20374;-76
2023/08/27 01:04:30;;;;;;;25.35;13.00;;;13.70;99.90;;;;;;5052546;28;20504;-76
2023/08/27 01:07:02;;;;;;;26.08;12.68;;;13.70;99.90;;;;;;5068968;28;20090;-76
2023/08/27 01:09:36;;;;;;;31.45;16.25;;;13.80;99.90;;;;;;5053010;28;20378;-75
2023/08/27 01:12:05;;;;;;;27.40;15.88;;;13.70;99.90;;;;;;5051683;28;20052;-76
2023/08/27 01:14:34;;;;;;;28.98;14.90;;;13.80;99.90;;;;;;5052723;28;20045;-75
2023/08/27 01:17:03;;;;;;;25.52;13.63;;;13.80;99.90;;;;;;5068870;28;20099;-75
2023/08/27 01:19:30;;;;;;;27.95;14.40;;;13.80;99.90;;;;;;5052978;28;20100;-76
2023/08/27 01:21:56;;;;;;;28.73;14.52;;;13.80;99.90;;;;;;5084888;28;20061;-75
2023/08/27 01:24:22;;;;;;;26.27;15.50;;;13.80;99.90;;;;;;5051456;28;20071;-76
2023/08/27 01:27:00;;;;;;;30.20;15.32;;;13.80;99.90;;;;;;5053240;28;20389;-76
2023/08/27 01:30:03;;;;;;;32.65;13.85;;;13.80;99.90;;;;;;5052831;28;20045;-76
2023/08/27 01:32:39;;;;;;;27.48;13.30;;;13.80;99.90;;;;;;5036053;28;20153;-75
2023/08/27 01:35:06;;;;;;;22.92;13.05;;;13.80;99.90;;;;;;5056198;28;20041;-75
2023/08/27 01:37:32;;;;;;;;;;;13.80;99.90;;;;;;5057166;28;20053;-75
2023/08/27 01:39:59;;;;;;;23.75;11.70;;;13.80;99.90;;;;;;5088843;28;19986;-75
2023/08/27 01:42:25;;;;;;;24.83;12.73;;;13.80;99.90;;;;;;5056059;28;20036;-74
2023/08/27 01:44:50;;;;;;;20.45;11.73;;;13.80;99.90;;;;;;5055989;28;20048;-74
2023/08/27 01:47:16;;;;;;;24.75;13.20;;;13.70;99.90;;;;;;5055271;28;20132;-75
2023/08/27 01:49:42;;;;;;;25.92;13.15;;;13.70;99.90;;;;;;5055574;28;20044;-74
2023/08/27 01:52:08;;;;;;;26.15;13.55;;;13.60;99.90;;;;;;5056185;28;20095;-75
2023/08/27 01:54:33;;;;;;;27.58;14.57;;;13.60;99.90;;;;;;5038625;28;20444;-76
2023/08/27 01:56:59;;;;;;;31.23;14.82;;;13.60;99.90;;;;;;5056700;28;20056;-76
2023/08/27 01:59:25;;;;;;;29.70;15.15;;;13.50;99.90;;;;;;5055640;28;20075;-74
2023/08/27 02:01:51;;;;;;;31.70;15.23;;;13.50;99.90;;;;;;5054797;28;20052;-75
2023/08/27 02:04:16;;;;;;;28.58;13.43;;;13.50;99.90;;;;;;5054402;28;20508;-76
2023/08/27 02:06:42;;;;;;;22.55;12.18;;;13.40;99.90;;;;;;5054541;28;20045;-76
2023/08/27 02:09:08;;;;;;;23.92;12.32;;;13.40;99.90;;;;;;5056088;28;20051;-74
2023/08/27 02:11:33;;;;;;;24.98;11.95;;;13.40;99.90;;;;;;5055396;28;20118;-75
2023/08/27 02:13:59;;;;;;;23.58;12.40;;;13.40;99.90;;;;;;5055761;28;20049;-76
2023/08/27 02:16:25;;;;;;;26.00;12.07;;;13.40;99.90;;;;;;5055469;28;20045;-74
2023/08/27 02:18:51;;;;;;;24.88;12.18;;;13.40;99.90;;;;;;5054174;28;20037;-76
2023/08/27 02:21:16;;;;;;;21.75;12.23;;;13.30;99.90;;;;;;5055526;28;20051;-76
2023/08/27 02:23:42;;;;;;;23.15;11.93;;;13.30;99.90;;;;;;5056199;28;20083;-75
2023/08/27 02:26:08;;;;;;;22.30;11.73;;;13.30;99.90;;;;;;5055963;28;20377;-75
2023/08/27 02:28:33;;;;;;;27.20;12.60;;;13.30;99.90;;;;;;5056320;28;20045;-75
2023/08/27 02:30:59;;;;;;;25.05;12.82;;;13.20;99.90;;;;;;5055796;28;20497;-76
2023/08/27 02:33:25;;;;;;;27.27;12.75;;;13.20;99.90;;;;;;5054368;28;20056;-74
2023/08/27 02:35:51;;;;;;;26.42;12.65;;;13.20;99.90;;;;;;5055343;28;20049;-75
2023/08/27 02:38:18;;;;;;;26.40;14.13;;;13.20;99.90;;;;;;5055151;28;20163;-73
2023/08/27 02:40:43;;;;;;;24.30;13.15;;;13.20;99.90;;;;;;5054348;28;20056;-75
2023/08/27 02:43:09;;;;;;;27.83;13.73;;;13.20;99.90;;;;;;5055038;28;20047;-74
2023/08/27 02:45:35;;;;;;;27.27;13.65;;;13.10;99.90;;;;;;5054085;28;20045;-76
2023/08/27 02:48:01;;;;;;;23.65;13.40;;;13.20;99.90;;;;;;5088138;28;20067;-74
2023/08/27 02:50:27;;;;;;;29.80;14.20;;;13.20;99.90;;;;;;5055123;28;20102;-76
2023/08/27 02:52:52;;;;;;;27.02;14.07;;;13.20;99.90;;;;;;5055624;28;20130;-77
2023/08/27 02:55:18;;;;;;;25.60;13.35;;;13.20;99.90;;;;;;5055011;28;20049;-75
2023/08/27 02:57:44;;;;;;;27.42;14.02;;;13.20;99.90;;;;;;5054761;28;20128;-76
2023/08/27 03:00:12;;;;;;;26.30;13.35;;;13.30;99.90;;;;;;5055450;28;20128;-77
2023/08/27 03:02:38;;;;;;;29.02;12.77;;;13.30;99.90;;;;;;5053649;28;20044;-76
2023/08/27 03:05:04;;;;;;;25.80;13.57;;;13.30;99.90;;;;;;5055655;28;20049;-77
2023/08/27 03:07:30;;;;;;;29.92;13.60;;;13.40;99.90;;;;;;5053416;28;20051;-78
2023/08/27 03:09:56;;;;;;;25.85;13.45;;;13.40;99.90;;;;;;5054323;28;20049;-78
2023/08/27 03:12:22;;;;;;;24.40;12.80;;;13.40;99.90;;;;;;5054748;28;20094;-78
2023/08/27 03:14:48;;;;;;;22.60;12.77;;;13.50;99.90;;;;;;5053708;28;20041;-78
2023/08/27 03:17:14;;;;;;;23.23;13.52;;;13.50;99.90;;;;;;5053434;28;20045;-77
2023/08/27 03:19:39;;;;;;;26.60;13.07;;;13.50;99.90;;;;;;5054083;28;20381;-78
2023/08/27 03:22:06;;;;;;;27.52;12.73;;;13.50;99.90;;;;;;5055950;28;20063;-75
2023/08/27 03:24:32;;;;;;;24.40;12.70;;;13.60;99.90;;;;;;5063545;28;20064;-76
2023/08/27 03:26:58;;;;;;;24.17;11.50;;;13.60;99.90;;;;;;5058499;28;20041;-76
2023/08/27 03:29:23;;;;;;;24.15;12.05;;;13.60;99.90;;;;;;5055344;28;20415;-76
2023/08/27 03:31:50;;;;;;;22.38;12.73;;;13.60;99.90;;;;;;5054525;28;20128;-77
2023/08/27 03:34:16;;;;;;;28.45;12.40;;;13.60;99.90;;;;;;5036803;28;20049;-77
2023/08/27 03:36:41;;;;;;;20.27;11.23;;;13.70;99.90;;;;;;5053086;28;20052;-78
2023/08/27 03:39:08;;;;;;;26.08;11.40;;;13.70;99.90;;;;;;5053691;28;20102;-77
2023/08/27 03:41:34;;;;;;;22.58;12.00;;;13.70;99.90;;;;;;5054047;28;20393;-76
2023/08/27 03:44:00;;;;;;;22.52;11.70;;;13.70;99.90;;;;;;5086087;28;20045;-77
2023/08/27 03:46:26;;;;;;;20.08;11.10;;;13.70;99.90;;;;;;5054946;28;20049;-77
2023/08/27 03:48:51;;;;;;;20.42;11.15;;;13.70;99.90;;;;;;5086885;28;20374;-78
2023/08/27 03:51:17;;;;;;;23.48;11.57;;;13.70;99.90;;;;;;5069559;28;20040;-78
2023/08/27 03:53:43;;;;;;;24.17;11.40;;;13.70;99.90;;;;;;5053257;28;20056;-79
2023/08/27 03:56:09;;;;;;;25.02;11.75;;;13.70;99.90;;;;;;5086303;28;20049;-77
2023/08/27 03:58:34;;;;;;;23.52;11.30;;;13.60;99.90;;;;;;5053776;28;20041;-77
2023/08/27 04:01:00;;;;;;;22.60;10.90;;;13.60;99.90;;;;;;5053003;28;20120;-78
2023/08/27 04:03:26;;;;;;;22.52;11.38;;;13.60;99.90;;;;;;5053439;28;20114;-78
2023/08/27 04:05:51;;;;;;;28.10;11.90;;;13.60;99.90;;;;;;5086469;28;20053;-76
2023/08/27 04:08:17;;;;;;;23.70;11.43;;;13.50;99.90;;;;;;5054619;28;20432;-79
2023/08/27 04:10:53;;;;;;;20.88;11.15;;;13.40;99.90;;;;;;5053601;28;20171;-77
2023/08/27 04:13:19;;;;;;;21.08;11.45;;;13.40;99.90;;;;;;5053734;28;20049;-77
2023/08/27 04:16:02;;;;;;;23.87;11.83;;;13.30;99.90;;;;;;5052990;28;20056;-76
2023/08/27 04:18:27;;;;;;;24.27;12.05;;;13.20;99.90;;;;;;5053692;28;20106;-76
2023/08/27 04:20:54;;;;;;;24.60;12.75;;;13.10;99.90;;;;;;5053914;28;20045;-76
2023/08/27 04:23:20;;;;;;;24.45;12.23;;;13.10;99.90;;;;;;5054534;28;20145;-76
2023/08/27 04:25:46;;;;;;;22.80;12.57;;;13.10;99.90;;;;;;5054018;28;20127;-77
2023/08/27 04:28:13;;;;;;;22.33;12.38;;;13.00;99.90;;;;;;5053469;28;20052;-77
2023/08/27 04:30:39;;;;;;;24.40;12.65;;;13.00;99.90;;;;;;5053390;28;20041;-76
2023/08/27 04:33:09;;;;;;;30.83;12.88;;;13.00;99.90;;;;;;5053439;28;20049;-76
2023/08/27 04:35:35;;;;;;;26.27;13.25;;;13.00;99.90;;;;;;5053590;28;20053;-76
2023/08/27 04:38:01;;;;;;;33.53;13.63;;;12.90;99.90;;;;;;5052758;28;20059;-78
2023/08/27 04:40:28;;;;;;;28.42;13.55;;;12.90;99.90;;;;;;5069269;28;20477;-78
2023/08/27 04:42:54;;;;;;;25.73;13.15;;;12.90;99.90;;;;;;5053395;28;20049;-78
2023/08/27 04:45:20;;;;;;;25.00;13.18;;;12.90;99.90;;;;;;5053779;28;20068;-78
2023/08/27 04:47:45;;;;;;;30.48;14.40;;;12.80;99.90;;;;;;5052426;28;20045;-77
2023/08/27 04:50:11;;;;;;;28.35;13.57;;;12.90;99.90;;;;;;5052075;28;20041;-76
2023/08/27 04:52:37;;;;;;;29.48;14.02;;;12.90;99.90;;;;;;5053319;28;20088;-76
2023/08/27 04:55:07;;;;;;;28.02;13.45;;;13.00;99.90;;;;;;5051860;28;20088;-75
2023/08/27 04:57:36;;;;;;;29.23;14.10;;;13.00;99.90;;;;;;5052748;28;20049;-76
2023/08/27 05:00:16;;;;;;;29.60;14.23;;;13.10;99.90;;;;;;5085688;28;20045;-78
2023/08/27 05:02:42;;;;;;;31.55;14.57;;;13.20;99.90;;;;;;5054502;28;20048;-77
2023/08/27 05:05:08;;;;;;;31.00;15.70;;;13.20;99.90;;;;;;5036479;28;20045;-76
2023/08/27 05:07:34;;;;;;;30.35;14.82;;;13.30;99.90;;;;;;5055100;28;20045;-75
2023/08/27 05:09:59;;;;;;;33.05;14.63;;;13.40;99.90;;;;;;5040906;28;20393;-77
2023/08/27 05:12:25;;;;;;;34.40;16.10;;;13.50;99.90;;;;;;5058513;28;20041;-75
2023/08/27 05:14:51;;;;;;;32.40;14.50;;;13.50;99.90;;;;;;5057497;28;20040;-77
2023/08/27 05:17:16;;;;;;;33.80;16.58;;;13.60;99.90;;;;;;5057980;28;20049;-76
2023/08/27 05:19:42;;;;;;;31.67;14.90;;;13.60;99.90;;;;;;5039361;28;20473;-77
2023/08/27 05:22:08;;;;;;;31.60;14.90;;;13.70;99.90;;;;;;5056921;28;20392;-77
2023/08/27 05:24:34;;;;;;;29.85;15.30;;;13.80;99.90;;;;;;5057262;28;20057;-77
2023/08/27 05:27:00;;;;;;;26.85;14.90;;;13.90;99.90;;;;;;5057422;28;20052;-78
2023/08/27 05:29:26;;;;;;;31.98;13.82;;;14.00;99.90;;;;;;5056551;28;20051;-78
2023/08/27 05:31:52;;;;;;;30.55;14.73;;;14.00;99.90;;;;;;5056721;28;20053;-80
2023/08/27 05:34:18;;;;;;;25.83;13.48;;;14.10;99.90;;;;;;5056691;28;20045;-76
2023/08/27 05:36:44;;;;;;;28.20;13.70;;;14.20;99.90;;;;;;5057045;28;20045;-79
2023/08/27 05:39:10;;;;;;;28.17;14.07;;;14.20;99.90;;;;;;5059729;28;20047;-78
2023/08/27 05:41:36;;;;;;;27.58;12.27;;;14.20;99.90;;;;;;5050557;28;20124;-76
2023/08/27 05:44:02;;;;;;;32.03;13.93;;;14.30;99.90;;;;;;5078155;28;20093;-81
2023/08/27 05:46:28;;;;;;;30.75;13.18;;;14.30;99.90;;;;;;5058976;28;20053;-80
2023/08/27 05:48:54;;;;;;;30.25;13.50;;;14.30;99.90;;;;;;5058886;28;20060;-80
2023/08/27 05:51:20;;;;;;;33.08;13.93;;;14.30;99.90;;;;;;5057035;28;20077;-82
2023/08/27 05:53:45;;;;;;;29.80;13.75;;;14.20;99.90;;;;;;5059939;28;20045;-85
2023/08/27 05:56:11;;;;;;;29.45;13.57;;;14.10;99.90;;;;;;5064803;28;20115;-87
2023/08/27 05:58:37;;;;;;;35.30;14.30;;;14.00;99.90;;;;;;5050131;28;20075;-85
2023/08/27 06:01:02;;;;;;;31.60;15.02;;;14.10;99.90;;;;;;5064366;28;20041;-83
2023/08/27 06:03:28;;;;;;;27.73;13.38;;;14.00;99.90;;;;;;5058950;28;20070;-82
2023/08/27 06:05:54;;;;;;;27.42;13.60;;;14.00;99.90;;;;;;5059556;28;20060;-83
2023/08/27 06:08:20;;;;;;;33.92;13.38;;;14.00;99.90;;;;;;5058111;28;20052;-81
2023/08/27 06:10:46;;;;;;;36.50;13.68;;;14.00;99.90;;;;;;5057383;28;20045;-77
2023/08/27 06:13:11;;;;;;;34.88;13.85;;;14.00;99.90;;;;;;5057736;28;20056;-82
2023/08/27 06:15:40;;;;;;;29.70;13.77;;;14.00;99.90;;;;;;5058246;28;20049;-81
2023/08/27 06:18:07;;;;;;;32.55;14.38;;;13.90;99.90;;;;;;5058700;28;20041;-80
2023/08/27 06:20:33;;;;;;;29.63;13.95;;;13.90;99.90;;;;;;5060207;28;20049;-83
2023/08/27 06:23:01;;;;;;;28.50;12.95;;;13.90;99.90;;;;;;5057363;28;20115;-83
2023/08/27 06:25:27;;;;;;;27.65;12.63;;;13.90;99.90;;;;;;5062660;28;20049;-82
2023/08/27 06:27:57;;;;;;;27.30;12.55;;;13.90;99.90;;;;;;5070753;28;20052;-82
2023/08/27 06:30:23;;;;;;;28.85;12.32;;;13.90;99.90;;;;;;5065555;28;20053;-81
2023/08/27 06:32:48;;;;;;;28.90;11.68;;;14.00;99.90;;;;;;5059624;28;20445;-85
2023/08/27 06:35:14;;;;;;;26.25;12.82;;;14.00;99.90;;;;;;5055491;28;20090;-83
2023/08/27 06:37:40;;;;;;;27.40;11.45;;;14.00;99.90;;;;;;5056006;28;20044;-82
2023/08/27 06:40:07;;;;;;;27.15;10.68;;;14.00;99.90;;;;;;5072098;28;20044;-83
2023/08/27 06:42:33;;;;;;;26.08;11.45;;;14.10;99.90;;;;;;5056185;28;20057;-84
2023/08/27 06:45:00;;;;;;;21.60;10.10;;;14.10;99.90;;;;;;5055661;28;20049;-83
2023/08/27 06:47:26;;;;;;;25.10;9.48;;;14.20;99.90;;;;;;5055415;28;20048;-82
2023/08/27 06:49:52;;;;;;;22.08;9.32;;;14.20;99.90;;;;;;5054914;28;20037;-84
2023/08/27 06:52:18;;;;;;;22.00;8.68;;;14.20;99.90;;;;;;5055690;28;20049;-83
2023/08/27 06:54:44;;;;;;;22.60;8.93;;;14.20;99.90;;;;;;5057021;28;20071;-86
2023/08/27 06:57:09;;;;;;;25.40;9.48;;;14.30;99.90;;;;;;5056629;28;20045;-83
2023/08/27 06:59:36;;;;;;;22.60;8.85;;;14.30;99.90;;;;;;5055763;28;20049;-85
2023/08/27 07:02:03;;;;;;;18.05;8.32;;;14.30;99.90;;;;;;5056502;28;20052;-83
2023/08/27 07:04:29;;;;;;;19.42;8.20;;;14.30;99.90;;;;;;5056751;28;20497;-79
2023/08/27 07:06:55;;;;;;;19.13;8.15;;;14.30;99.90;;;;;;5055530;28;20127;-82
2023/08/27 07:09:22;;;;;;;23.17;9.07;;;14.30;99.90;;;;;;5056898;28;20079;-81
2023/08/27 07:11:48;;;;;;;19.92;8.65;;;14.30;99.90;;;;;;5038616;28;20048;-84
2023/08/27 07:14:13;;;;;;;22.25;8.82;;;14.20;99.90;;;;;;5055193;28;20436;-83
2023/08/27 07:16:39;;;;;;;20.67;8.60;;;14.20;99.90;;;;;;5056465;28;20131;-82
2023/08/27 07:19:05;;;;;;;22.33;7.88;;;14.20;99.90;;;;;;5057621;28;20041;-80
2023/08/27 07:21:31;;;;;;;22.53;7.67;;;14.20;99.90;;;;;;5040961;28;20120;-86
2023/08/27 07:23:57;;;;;;;17.08;7.97;;;14.10;99.90;;;;;;5056685;28;20099;-82
2023/08/27 07:26:23;;;;;;;21.30;8.90;;;14.20;99.90;;;;;;5056762;28;20056;-81
2023/08/27 07:28:49;;;;;;;21.75;7.18;;;14.20;99.90;;;;;;5056240;28;20056;-85
2023/08/27 07:31:15;;;;;;;19.65;8.20;;;14.30;99.90;;;;;;5038124;28;20037;-82
2023/08/27 07:33:40;;;;;;;17.65;7.90;;;14.40;99.90;;;;;;5055415;28;20045;-83
2023/08/27 07:36:06;;;;;;;17.58;7.47;;;14.50;99.90;;;;;;5053819;28;20055;-82
2023/08/27 07:38:38;;;;;;;19.02;6.95;;;14.60;99.90;;;;;;5054523;28;20131;-82
2023/08/27 07:41:03;;;;;;;20.95;6.47;;;14.50;99.90;;;;;;5055125;28;20092;-80
2023/08/27 07:43:29;;;;;;;18.65;7.50;;;14.50;99.90;;;;;;5055173;28;20076;-83
2023/08/27 07:45:55;;;;;;;15.98;7.55;;;14.50;99.90;;;;;;5054551;28;20127;-79
2023/08/27 07:48:21;;;;;;;16.65;6.68;;;14.40;99.90;;;;;;5057432;28;20083;-81
2023/08/27 07:50:47;;;;;;;17.60;7.30;;;14.50;99.90;;;;;;5059416;28;20075;-80
2023/08/27 07:53:13;;;;;;;16.38;7.05;;;14.50;99.90;;;;;;5072916;28;20071;-81
2023/08/27 07:55:39;;;;;;;17.83;6.97;;;14.60;99.90;;;;;;5053555;28;20049;-83
2023/08/27 07:58:05;;;;;;;15.77;6.22;;;14.70;99.90;;;;;;5071283;28;20048;-83
2023/08/27 08:00:30;;;;;;;17.88;6.50;;;14.90;99.90;;;;;;5068212;28;20101;-83
2023/08/27 08:02:56;;;;;;;19.52;6.18;;;15.00;99.90;;;;;;5067841;28;20049;-80
2023/08/27 08:05:22;;;;;;;14.75;6.05;;;15.10;99.90;;;;;;5065351;28;20045;-82
2023/08/27 08:07:47;;;;;;;18.88;6.40;;;15.20;99.90;;;;;;5065879;28;20040;-83
2023/08/27 08:10:13;;;;;;;18.13;6.32;;;15.30;99.90;;;;;;5074013;28;20053;-81
2023/08/27 08:12:39;;;;;;;15.37;5.63;;;15.40;99.90;;;;;;5074899;28;20041;-84
2023/08/27 08:15:05;;;;;;;16.95;6.20;;;15.50;99.90;;;;;;5068033;28;20044;-77
2023/08/27 08:17:31;;;;;;;16.37;5.67;;;15.60;99.90;;;;;;5073266;28;20028;-80
2023/08/27 08:19:57;;;;;;;13.30;5.55;;;15.60;99.90;;;;;;5067609;28;20040;-78
2023/08/27 08:22:22;;;;;;;14.98;5.55;;;15.70;99.90;;;;;;5064426;28;20072;-78
2023/08/27 08:24:48;;;;;;;13.35;5.50;;;15.80;99.90;;;;;;5066953;28;20048;-80
2023/08/27 08:27:14;;;;;;;14.50;5.88;;;15.80;99.90;;;;;;5060270;28;20496;-81
2023/08/27 08:29:40;;;;;;;13.38;5.30;;;15.90;99.90;;;;;;5064576;28;20055;-79
2023/08/27 08:32:05;;;;;;;14.20;5.93;;;15.90;99.90;;;;;;5060605;28;20492;-79
2023/08/27 08:34:32;;;;;;;14.68;6.05;;;16.00;99.90;;;;;;5059442;28;20138;-80
2023/08/27 08:37:00;;;;;;;19.25;6.65;;;16.10;99.90;;;;;;5059255;28;20398;-78
2023/08/27 08:39:25;;;;;;;18.17;6.55;;;16.20;99.90;;;;;;5057252;28;20503;-81
2023/08/27 08:42:11;;;;;;;15.30;6.25;;;16.20;99.90;;;;;;5059296;28;20097;-79
2023/08/27 08:45:05;;;;;;;18.05;6.30;;;16.30;99.90;;;;;;5084522;28;20064;-78
2023/08/27 08:47:35;;;;;;;15.40;6.40;;;16.40;99.90;;;;;;5063322;28;20052;-81
2023/08/27 08:50:05;;;;;;;18.50;7.00;;;16.50;99.90;;;;;;5065489;28;20037;-80
2023/08/27 08:52:35;;;;;;;22.02;6.40;;;16.50;99.90;;;;;;5062674;28;20099;-78
2023/08/27 08:55:06;;;;;;;20.70;7.35;;;16.60;99.90;;;;;;5059593;28;20040;-78
2023/08/27 08:57:36;;;;;;;20.75;7.03;;;16.70;99.90;;;;;;5061174;28;20119;-80
2023/08/27 09:00:03;;;;;;;19.65;8.27;;;16.80;99.90;;;;;;5060571;28;20048;-79
2023/08/27 09:02:29;;;;;;;24.00;7.95;;;16.90;99.90;;;;;;5059821;28;20527;-78
2023/08/27 09:04:56;;;;;;;21.10;7.53;;;16.90;99.90;;;;;;5056673;28;20053;-77
2023/08/27 09:07:23;;;;;;;24.23;8.95;;;17.00;99.90;;;;;;5061515;28;20132;-78
2023/08/27 09:09:51;;;;;;;24.90;9.13;;;17.10;99.90;;;;;;5057684;28;20553;-78
2023/08/27 09:12:20;;;;;;;30.27;10.70;;;17.30;99.90;;;;;;5057391;28;20056;-82
2023/08/27 09:14:47;;;;;;;22.95;9.77;;;17.50;99.90;;;;;;5059898;28;20048;-76
2023/08/27 09:17:16;;;;;;;27.90;10.30;;;17.50;99.90;;;;;;5060267;28;20132;-79
2023/08/27 09:19:43;;;;;;;28.10;11.00;;;17.60;99.90;;;;;;5057580;28;20045;-80
2023/08/27 09:22:12;;;;;;;24.48;10.73;;;17.60;99.90;;;;;;5064005;28;20064;-78
2023/08/27 09:24:38;;;;;;;33.78;11.65;;;17.60;99.90;;;;;;5042035;28;20308;-78
2023/08/27 09:27:04;;;;;;;26.57;10.63;;;17.60;99.90;;;;;;5025610;28;20103;-81
2023/08/27 09:29:32;;;;;;;23.97;8.83;;;17.60;99.90;;;;;;5074522;28;20056;-83
2023/08/27 09:31:57;;;;;;;29.60;10.73;;;17.70;99.90;;;;;;5042545;28;20045;-85
2023/08/27 09:34:23;;;;;;;31.37;13.13;;;17.90;99.90;;;;;;5057305;28;20550;-83
2023/08/27 09:36:49;;;;;;;24.83;10.73;;;18.20;99.90;;;;;;5059998;28;20049;-81
2023/08/27 09:39:15;;;;;;;22.53;9.73;;;18.50;99.90;;;;;;5058593;28;20076;-81
2023/08/27 09:41:43;;;;;;;25.02;10.27;;;18.70;99.90;;;;;;5063703;28;20040;-84
2023/08/27 09:44:10;;;;;;;22.17;11.43;;;19.00;99.90;;;;;;5060944;28;20057;-80
2023/08/27 09:46:37;;;;;;;20.35;10.88;;;19.00;99.90;;;;;;5075988;28;20381;-82
2023/08/27 09:49:07;;;;;;;20.08;9.73;;;19.10;99.90;;;;;;5060309;28;20041;-78
2023/08/27 09:51:36;;;;;;;23.27;9.35;;;19.50;99.90;;;;;;5060666;28;20084;-79
2023/08/27 09:54:17;;;;;;;22.90;9.45;;;19.70;99.90;;;;;;5059876;28;20044;-83
2023/08/27 09:56:47;;;;;;;22.30;9.52;;;19.60;99.90;;;;;;5026729;28;20053;-84
2023/08/27 09:59:18;;;;;;;21.48;8.55;;;19.70;99.90;;;;;;5060527;28;20071;-83
2023/08/27 10:01:50;;;;;;;18.52;7.82;;;19.70;99.90;;;;;;5057977;28;20144;-76
2023/08/27 10:04:18;;;;;;;18.80;9.18;;;19.60;99.90;;;;;;5057148;28;20076;-85
2023/08/27 10:06:44;;;;;;;19.65;9.70;;;19.40;99.90;;;;;;5069392;28;20045;-82
2023/08/27 10:09:10;;;;;;;21.83;9.30;;;19.50;99.90;;;;;;5068552;28;20045;-79
2023/08/27 10:11:36;;;;;;;23.57;8.20;;;19.40;99.90;;;;;;5061644;28;20475;-87
2023/08/27 10:14:03;;;;;;;26.42;8.63;;;19.40;99.90;;;;;;5060190;28;20131;-82
2023/08/27 10:16:36;;;;;;;21.13;7.70;;;19.70;99.90;;;;;;5057982;28;20041;-84
2023/08/27 10:19:04;;;;;;;18.25;8.25;;;19.80;99.90;;;;;;5058897;28;20052;-84
2023/08/27 10:21:30;;;;;;;17.27;7.40;;;19.70;99.90;;;;;;5059767;28;20041;-84
2023/08/27 10:23:57;;;;;;;22.00;8.15;;;19.60;99.90;;;;;;5061004;28;20066;-81
2023/08/27 10:26:23;;;;;;;19.55;7.93;;;19.50;99.90;;;;;;5039701;28;20099;-79
2023/08/27 10:28:53;;;;;;;16.35;7.18;;;19.50;99.90;;;;;;5058909;28;20120;-81
2023/08/27 10:31:19;;;;;;;16.25;7.00;;;19.50;99.90;;;;;;5056909;28;20132;-84
2023/08/27 10:33:45;;;;;;;20.00;7.30;;;19.60;99.90;;;;;;5057256;28;20056;-81
2023/08/27 10:36:20;;;;;;;16.87;7.50;;;19.50;99.90;;;;;;5056969;28;20045;-83
2023/08/27 10:38:48;;;;;;;20.27;7.50;;;19.50;99.90;;;;;;5058418;28;20048;-85
2023/08/27 10:41:20;;;;;;;19.00;7.97;;;19.60;99.90;;;;;;5059790;28;20041;-84
2023/08/27 10:43:46;;;;;;;20.50;8.55;;;19.40;99.90;;;;;;5060101;28;20057;-85
2023/08/27 10:46:17;;;;;;;17.67;7.30;;;19.50;99.90;;;;;;5062759;28;20094;-83
2023/08/27 10:48:49;;;;;;;27.70;8.15;;;19.60;99.90;;;;;;5059896;28;20045;-82
2023/08/27 10:51:16;;;;;;;15.73;8.55;;;19.70;99.90;;;;;;5040559;28;20373;-88
2023/08/27 10:53:48;;;;;;;19.58;8.88;;;19.70;99.90;;;;;;5059295;28;20080;-83
2023/08/27 10:56:38;;;;;;;17.58;8.35;;;19.80;99.90;;;;;;5058783;28;20057;-85
2023/08/27 10:59:09;;;;;;;21.25;9.25;;;20.00;99.90;;;;;;5057438;28;20045;-82
2023/08/27 11:01:53;;;;;;;18.30;7.47;;;20.30;99.90;;;;;;5056275;28;20053;-81
2023/08/27 11:04:19;;;;;;;19.13;8.25;;;20.40;99.90;;;;;;5055770;28;20102;-85
2023/08/27 11:06:46;;;;;;;22.43;9.07;;;20.40;99.90;;;;;;5057534;28;20489;-86
2023/08/27 11:09:14;;;;;;;19.95;8.63;;;20.50;99.90;;;;;;5058473;28;20572;-85
2023/08/27 11:11:43;;;;;;;17.80;8.07;;;20.60;99.90;;;;;;5056143;28;20041;-81
2023/08/27 11:14:09;;;;;;;20.30;7.60;;;20.70;99.90;;;;;;5057204;28;20408;-80
2023/08/27 11:16:47;;;;;;;22.20;8.05;;;20.80;99.90;;;;;;5058265;28;20128;-84
2023/08/27 11:19:13;;;;;;;19.13;7.75;;;20.90;99.90;;;;;;5062060;28;20115;-83
2023/08/27 11:21:46;;;;;;;13.18;5.85;;;21.00;99.90;;;;;;5041992;28;20049;-80
2023/08/27 11:24:23;;;;;;;11.35;5.35;;;21.00;99.90;;;;;;5057687;28;20049;-78
2023/08/27 11:26:59;;;;;;;15.25;5.03;;;21.10;99.90;;;;;;5090962;27;20386;-81
2023/08/27 11:29:27;;;;;;;15.68;5.80;;;21.10;99.90;;;;;;5090491;28;20500;-80
2023/08/27 11:31:52;;;;;;;12.93;5.43;;;21.10;99.90;;;;;;5089068;28;20047;-81
2023/08/27 11:34:19;;;;;;;16.10;6.00;;;21.00;99.90;;;;;;5091563;28;20048;-81
2023/08/27 11:36:54;;;;;;;14.80;4.90;;;20.70;99.90;;;;;;5092385;28;20408;-74
2023/08/27 11:39:20;;;;;;;13.30;4.90;;;20.50;99.90;;;;;;5091753;28;20044;-78
2023/08/27 11:41:46;;;;;;;13.88;5.78;;;20.30;99.90;;;;;;5091402;28;20083;-78
2023/08/27 11:44:12;;;;;;;13.55;5.50;;;19.90;99.90;;;;;;5090224;28;20048;-78
2023/08/27 11:46:41;;;;;;;17.05;6.13;;;19.70;99.90;;;;;;5089979;28;20048;-80
2023/08/27 11:49:08;;;;;;;16.25;7.40;;;19.40;99.90;;;;;;5090727;28;20044;-80
2023/08/27 11:51:34;;;;;;;21.83;7.32;;;18.90;99.90;;;;;;5091957;28;20048;-84
2023/08/27 11:54:05;;;;;;;16.50;6.15;;;18.60;99.90;;;;;;5094150;28;20115;-84
2023/08/27 11:56:34;;;;;;;14.05;5.28;;;18.10;99.90;;;;;;5093909;28;20044;-80
2023/08/27 11:59:00;;;;;;;13.40;4.60;;;17.70;99.90;;;;;;5076638;28;20052;-85
2023/08/27 12:01:26;;;;;;;15.23;4.27;;;17.40;99.90;;;;;;5093022;28;20048;-86
2023/08/27 12:03:52;;;;;;;9.45;3.92;;;17.40;99.90;;;;;;5093383;28;20553;-85
2023/08/27 12:06:28;;;;;;;12.90;3.70;;;17.30;99.90;;;;;;5094396;28;20050;-83
2023/08/27 12:08:55;;;;;;;9.25;3.67;;;17.40;99.90;;;;;;5095381;28;20059;-84
2023/08/27 12:11:26;;;;;;;;;;;17.50;99.90;;;;;;5095452;28;20079;-82
2023/08/27 12:13:56;;;;;;;13.10;4.25;;;17.70;99.90;;;;;;5076916;28;19943;-86
2023/08/27 12:16:34;;;;;;;12.25;5.47;;;17.90;99.90;;;;;;5095871;28;20119;-81
2023/08/27 12:19:08;;;;;;;20.15;7.97;;;18.20;99.90;;;;;;5097452;28;20076;-80
2023/08/27 12:21:57;;;;;;;17.33;9.05;;;18.40;99.90;;;;;;5102034;28;20051;-83
2023/08/27 12:24:26;;;;;;;22.70;11.02;;;18.60;99.90;;;;;;5099258;28;20036;-83
2023/08/27 12:26:51;;;;;;;22.33;11.35;;;18.80;99.90;;;;;;5093101;28;20048;-82
2023/08/27 12:29:17;;;;;;;23.40;11.23;;;18.90;99.90;;;;;;5091014;28;20101;-82
2023/08/27 12:31:45;;;;;;;27.17;10.80;;;18.90;99.90;;;;;;5089455;28;20041;-81
2023/08/27 12:34:11;;;;;;;22.88;10.98;;;19.00;99.90;;;;;;5088672;28;20051;-84